Terminal Aerodrome Forecast
Issued by NWS

Home | Current Version | Previous Version | Text Only | Print | Product List | Glossary On
Versions: 1 2 3 4 5 6 7 8 9 10 11 12
000
FTUS42 KTBW 231124
TAFPIE
TAF
KPIE 231124Z 2312/2412 04007KT P6SM FEW250
     FM231400 07007KT P6SM SCT025 BKN250
     FM231800 07008KT P6SM VCTS BKN035CB
     FM240100 08010KT P6SM SCT050=

USA.gov is the U.S. government's official web portal to all federal, state and local government web resources and services.